sensor_id;sensor_type;location;lat;lon;timestamp;P1;durP1;ratioP1;P2;durP2;ratioP2
69892;SDS011;61212;42.688;22.176;2022-08-30T00:02:35;14.90;;;10.00;;
69892;SDS011;61212;42.688;22.176;2022-08-30T00:08:22;13.98;;;11.07;;
69892;SDS011;61212;42.688;22.176;2022-08-30T00:10:48;13.95;;;10.93;;
69892;SDS011;61212;42.688;22.176;2022-08-30T00:13:15;16.63;;;9.82;;
69892;SDS011;61212;42.688;22.176;2022-08-30T00:15:43;18.88;;;11.38;;
69892;SDS011;61212;42.688;22.176;2022-08-30T00:18:09;15.95;;;11.15;;
69892;SDS011;61212;42.688;22.176;2022-08-30T00:23:38;18.95;;;10.27;;
69892;SDS011;61212;42.688;22.176;2022-08-30T00:26:05;18.42;;;10.43;;
69892;SDS011;61212;42.688;22.176;2022-08-30T00:28:32;19.92;;;11.00;;
69892;SDS011;61212;42.688;22.176;2022-08-30T00:30:59;13.70;;;10.15;;
69892;SDS011;61212;42.688;22.176;2022-08-30T00:33:26;20.98;;;11.40;;
69892;SDS011;61212;42.688;22.176;2022-08-30T00:35:52;13.93;;;9.70;;
69892;SDS011;61212;42.688;22.176;2022-08-30T00:38:19;13.80;;;9.85;;
69892;SDS011;61212;42.688;22.176;2022-08-30T00:40:47;16.90;;;11.27;;
69892;SDS011;61212;42.688;22.176;2022-08-30T00:43:25;17.20;;;11.68;;
69892;SDS011;61212;42.688;22.176;2022-08-30T00:45:53;17.17;;;9.75;;
69892;SDS011;61212;42.688;22.176;2022-08-30T00:48:20;19.13;;;10.93;;
69892;SDS011;61212;42.688;22.176;2022-08-30T00:50:57;21.33;;;10.63;;
69892;SDS011;61212;42.688;22.176;2022-08-30T00:53:32;16.33;;;10.63;;
69892;SDS011;61212;42.688;22.176;2022-08-30T00:56:03;17.67;;;10.70;;
69892;SDS011;61212;42.688;22.176;2022-08-30T00:58:31;19.15;;;10.80;;
69892;SDS011;61212;42.688;22.176;2022-08-30T01:01:03;18.60;;;11.85;;
69892;SDS011;61212;42.688;22.176;2022-08-30T01:03:30;17.38;;;10.63;;
69892;SDS011;61212;42.688;22.176;2022-08-30T01:05:57;14.25;;;10.23;;
69892;SDS011;61212;42.688;22.176;2022-08-30T01:08:23;16.05;;;10.48;;
69892;SDS011;61212;42.688;22.176;2022-08-30T01:10:50;18.98;;;10.63;;
69892;SDS011;61212;42.688;22.176;2022-08-30T01:13:18;11.77;;;10.45;;
69892;SDS011;61212;42.688;22.176;2022-08-30T01:15:46;16.67;;;10.10;;
69892;SDS011;61212;42.688;22.176;2022-08-30T01:18:13;18.30;;;10.48;;
69892;SDS011;61212;42.688;22.176;2022-08-30T01:23:43;17.73;;;11.15;;
69892;SDS011;61212;42.688;22.176;2022-08-30T01:26:11;17.45;;;9.40;;
69892;SDS011;61212;42.688;22.176;2022-08-30T01:28:39;16.98;;;9.57;;
69892;SDS011;61212;42.688;22.176;2022-08-30T01:31:05;21.00;;;11.25;;
69892;SDS011;61212;42.688;22.176;2022-08-30T01:33:32;15.20;;;10.60;;
69892;SDS011;61212;42.688;22.176;2022-08-30T01:36:02;21.20;;;10.00;;
69892;SDS011;61212;42.688;22.176;2022-08-30T01:38:51;14.13;;;9.75;;
69892;SDS011;61212;42.688;22.176;2022-08-30T01:43:52;13.10;;;10.73;;
69892;SDS011;61212;42.688;22.176;2022-08-30T01:46:20;14.00;;;11.15;;
69892;SDS011;61212;42.688;22.176;2022-08-30T01:48:48;14.13;;;9.65;;
69892;SDS011;61212;42.688;22.176;2022-08-30T01:51:14;18.95;;;10.27;;
69892;SDS011;61212;42.688;22.176;2022-08-30T01:53:41;14.70;;;10.75;;
69892;SDS011;61212;42.688;22.176;2022-08-30T01:56:08;20.08;;;10.82;;
69892;SDS011;61212;42.688;22.176;2022-08-30T01:58:34;15.27;;;10.93;;
69892;SDS011;61212;42.688;22.176;2022-08-30T02:01:02;15.95;;;10.80;;
69892;SDS011;61212;42.688;22.176;2022-08-30T02:03:30;16.85;;;10.60;;
69892;SDS011;61212;42.688;22.176;2022-08-30T02:06:06;17.02;;;10.40;;
69892;SDS011;61212;42.688;22.176;2022-08-30T02:08:34;17.33;;;11.65;;
69892;SDS011;61212;42.688;22.176;2022-08-30T02:11:00;16.25;;;10.77;;
69892;SDS011;61212;42.688;22.176;2022-08-30T02:13:26;14.20;;;11.15;;
69892;SDS011;61212;42.688;22.176;2022-08-30T02:15:52;20.17;;;9.45;;
69892;SDS011;61212;42.688;22.176;2022-08-30T02:18:18;12.20;;;10.25;;
69892;SDS011;61212;42.688;22.176;2022-08-30T02:24:07;16.38;;;9.18;;
69892;SDS011;61212;42.688;22.176;2022-08-30T02:26:33;13.30;;;10.20;;
69892;SDS011;61212;42.688;22.176;2022-08-30T02:29:00;14.23;;;10.60;;
69892;SDS011;61212;42.688;22.176;2022-08-30T02:31:29;14.98;;;11.32;;
69892;SDS011;61212;42.688;22.176;2022-08-30T02:33:55;13.73;;;10.52;;
69892;SDS011;61212;42.688;22.176;2022-08-30T02:36:21;17.90;;;10.77;;
69892;SDS011;61212;42.688;22.176;2022-08-30T02:38:48;19.00;;;11.43;;
69892;SDS011;61212;42.688;22.176;2022-08-30T02:41:14;13.80;;;10.45;;
69892;SDS011;61212;42.688;22.176;2022-08-30T02:43:41;16.63;;;10.98;;
69892;SDS011;61212;42.688;22.176;2022-08-30T02:46:07;19.30;;;10.73;;
69892;SDS011;61212;42.688;22.176;2022-08-30T02:48:32;15.05;;;10.60;;
69892;SDS011;61212;42.688;22.176;2022-08-30T02:51:03;13.10;;;10.18;;
69892;SDS011;61212;42.688;22.176;2022-08-30T02:53:31;14.43;;;10.38;;
69892;SDS011;61212;42.688;22.176;2022-08-30T02:55:56;17.40;;;10.52;;
69892;SDS011;61212;42.688;22.176;2022-08-30T02:58:22;13.48;;;10.18;;
69892;SDS011;61212;42.688;22.176;2022-08-30T03:00:48;13.38;;;10.55;;
69892;SDS011;61212;42.688;22.176;2022-08-30T03:03:14;15.13;;;11.10;;
69892;SDS011;61212;42.688;22.176;2022-08-30T03:08:44;15.05;;;10.55;;
69892;SDS011;61212;42.688;22.176;2022-08-30T03:11:09;16.15;;;10.80;;
69892;SDS011;61212;42.688;22.176;2022-08-30T03:13:37;15.55;;;10.73;;
69892;SDS011;61212;42.688;22.176;2022-08-30T03:16:03;17.60;;;10.40;;
69892;SDS011;61212;42.688;22.176;2022-08-30T03:18:29;17.17;;;10.77;;
69892;SDS011;61212;42.688;22.176;2022-08-30T03:24:17;10.50;;;9.02;;
69892;SDS011;61212;42.688;22.176;2022-08-30T03:26:43;12.50;;;10.13;;
69892;SDS011;61212;42.688;22.176;2022-08-30T03:29:09;12.30;;;9.80;;
69892;SDS011;61212;42.688;22.176;2022-08-30T03:31:35;15.70;;;11.77;;
69892;SDS011;61212;42.688;22.176;2022-08-30T03:34:01;13.73;;;10.25;;
69892;SDS011;61212;42.688;22.176;2022-08-30T03:36:27;17.17;;;10.40;;
69892;SDS011;61212;42.688;22.176;2022-08-30T03:38:53;14.48;;;10.65;;
69892;SDS011;61212;42.688;22.176;2022-08-30T03:41:19;15.82;;;11.25;;
69892;SDS011;61212;42.688;22.176;2022-08-30T03:43:44;13.77;;;10.30;;
69892;SDS011;61212;42.688;22.176;2022-08-30T03:46:13;18.55;;;10.60;;
69892;SDS011;61212;42.688;22.176;2022-08-30T03:48:39;18.42;;;12.90;;
69892;SDS011;61212;42.688;22.176;2022-08-30T03:54:28;18.65;;;14.27;;
69892;SDS011;61212;42.688;22.176;2022-08-30T03:56:53;22.63;;;15.73;;
69892;SDS011;61212;42.688;22.176;2022-08-30T03:59:20;23.58;;;14.88;;
69892;SDS011;61212;42.688;22.176;2022-08-30T04:01:46;21.90;;;15.27;;
69892;SDS011;61212;42.688;22.176;2022-08-30T04:04:13;18.85;;;12.48;;
69892;SDS011;61212;42.688;22.176;2022-08-30T04:06:39;22.88;;;16.27;;
69892;SDS011;61212;42.688;22.176;2022-08-30T04:09:05;21.88;;;16.33;;
69892;SDS011;61212;42.688;22.176;2022-08-30T04:11:31;16.15;;;14.32;;
69892;SDS011;61212;42.688;22.176;2022-08-30T04:13:57;21.95;;;12.75;;
69892;SDS011;61212;42.688;22.176;2022-08-30T04:16:23;14.07;;;11.30;;
69892;SDS011;61212;42.688;22.176;2022-08-30T04:18:50;17.05;;;10.88;;
69892;SDS011;61212;42.688;22.176;2022-08-30T04:21:34;11.50;;;9.98;;
69892;SDS011;61212;42.688;22.176;2022-08-30T04:24:01;16.85;;;11.32;;
69892;SDS011;61212;42.688;22.176;2022-08-30T04:26:27;18.10;;;11.25;;
69892;SDS011;61212;42.688;22.176;2022-08-30T04:28:54;15.68;;;11.20;;
69892;SDS011;61212;42.688;22.176;2022-08-30T04:31:20;17.75;;;11.77;;
69892;SDS011;61212;42.688;22.176;2022-08-30T04:33:46;18.45;;;12.13;;
69892;SDS011;61212;42.688;22.176;2022-08-30T04:36:12;13.30;;;10.60;;
69892;SDS011;61212;42.688;22.176;2022-08-30T04:38:38;19.15;;;10.93;;
69892;SDS011;61212;42.688;22.176;2022-08-30T04:41:15;16.98;;;11.27;;
69892;SDS011;61212;42.688;22.176;2022-08-30T04:43:43;14.05;;;11.45;;
69892;SDS011;61212;42.688;22.176;2022-08-30T04:46:10;15.05;;;10.80;;
69892;SDS011;61212;42.688;22.176;2022-08-30T04:48:37;22.00;;;11.52;;
69892;SDS011;61212;42.688;22.176;2022-08-30T04:53:49;21.65;;;11.10;;
69892;SDS011;61212;42.688;22.176;2022-08-30T04:56:16;18.95;;;12.35;;
69892;SDS011;61212;42.688;22.176;2022-08-30T04:58:47;16.25;;;11.93;;
69892;SDS011;61212;42.688;22.176;2022-08-30T05:01:20;15.70;;;11.95;;
69892;SDS011;61212;42.688;22.176;2022-08-30T05:03:48;19.98;;;12.07;;
69892;SDS011;61212;42.688;22.176;2022-08-30T05:09:36;20.73;;;11.93;;
69892;SDS011;61212;42.688;22.176;2022-08-30T05:12:02;16.23;;;11.35;;
69892;SDS011;61212;42.688;22.176;2022-08-30T05:14:28;17.25;;;11.93;;
69892;SDS011;61212;42.688;22.176;2022-08-30T05:16:53;14.15;;;11.43;;
69892;SDS011;61212;42.688;22.176;2022-08-30T05:19:19;18.27;;;12.05;;
69892;SDS011;61212;42.688;22.176;2022-08-30T05:21:45;19.27;;;12.88;;
69892;SDS011;61212;42.688;22.176;2022-08-30T05:24:10;17.85;;;13.32;;
69892;SDS011;61212;42.688;22.176;2022-08-30T05:26:37;24.70;;;13.07;;
69892;SDS011;61212;42.688;22.176;2022-08-30T05:29:03;17.23;;;14.10;;
69892;SDS011;61212;42.688;22.176;2022-08-30T05:31:30;19.08;;;13.93;;
69892;SDS011;61212;42.688;22.176;2022-08-30T05:33:58;25.60;;;13.18;;
69892;SDS011;61212;42.688;22.176;2022-08-30T05:36:25;16.92;;;13.32;;
69892;SDS011;61212;42.688;22.176;2022-08-30T05:38:53;19.20;;;12.25;;
69892;SDS011;61212;42.688;22.176;2022-08-30T05:41:21;19.63;;;11.88;;
69892;SDS011;61212;42.688;22.176;2022-08-30T05:43:50;18.02;;;12.52;;
69892;SDS011;61212;42.688;22.176;2022-08-30T05:46:17;18.65;;;13.23;;
69892;SDS011;61212;42.688;22.176;2022-08-30T05:48:43;16.98;;;13.05;;
69892;SDS011;61212;42.688;22.176;2022-08-30T05:51:14;20.20;;;12.32;;
69892;SDS011;61212;42.688;22.176;2022-08-30T05:53:43;17.13;;;12.27;;
69892;SDS011;61212;42.688;22.176;2022-08-30T05:56:10;16.13;;;12.10;;
69892;SDS011;61212;42.688;22.176;2022-08-30T05:58:37;18.25;;;11.93;;
69892;SDS011;61212;42.688;22.176;2022-08-30T06:01:04;17.55;;;11.55;;
69892;SDS011;61212;42.688;22.176;2022-08-30T06:03:30;16.83;;;12.30;;
69892;SDS011;61212;42.688;22.176;2022-08-30T06:05:59;14.88;;;12.10;;
69892;SDS011;61212;42.688;22.176;2022-08-30T06:08:25;16.60;;;12.65;;
69892;SDS011;61212;42.688;22.176;2022-08-30T06:10:51;18.77;;;11.98;;
69892;SDS011;61212;42.688;22.176;2022-08-30T06:13:17;14.32;;;12.13;;
69892;SDS011;61212;42.688;22.176;2022-08-30T06:15:43;15.25;;;11.48;;
69892;SDS011;61212;42.688;22.176;2022-08-30T06:18:09;18.67;;;12.88;;
69892;SDS011;61212;42.688;22.176;2022-08-30T06:20:42;16.63;;;12.90;;
69892;SDS011;61212;42.688;22.176;2022-08-30T06:23:11;16.85;;;12.18;;
69892;SDS011;61212;42.688;22.176;2022-08-30T06:25:38;16.98;;;11.95;;
69892;SDS011;61212;42.688;22.176;2022-08-30T06:28:04;16.65;;;12.00;;
69892;SDS011;61212;42.688;22.176;2022-08-30T06:30:31;16.13;;;12.32;;
69892;SDS011;61212;42.688;22.176;2022-08-30T06:32:57;16.63;;;11.88;;
69892;SDS011;61212;42.688;22.176;2022-08-30T06:35:24;18.05;;;12.07;;
69892;SDS011;61212;42.688;22.176;2022-08-30T06:37:51;15.40;;;11.45;;
69892;SDS011;61212;42.688;22.176;2022-08-30T06:40:17;21.25;;;12.20;;
69892;SDS011;61212;42.688;22.176;2022-08-30T06:42:45;16.15;;;11.73;;
69892;SDS011;61212;42.688;22.176;2022-08-30T06:45:11;13.95;;;11.90;;
69892;SDS011;61212;42.688;22.176;2022-08-30T06:47:38;13.75;;;12.00;;
69892;SDS011;61212;42.688;22.176;2022-08-30T06:50:04;13.05;;;11.65;;
69892;SDS011;61212;42.688;22.176;2022-08-30T06:52:31;20.75;;;11.77;;
69892;SDS011;61212;42.688;22.176;2022-08-30T06:54:57;13.38;;;10.43;;
69892;SDS011;61212;42.688;22.176;2022-08-30T06:57:23;16.63;;;11.80;;
69892;SDS011;61212;42.688;22.176;2022-08-30T06:59:52;16.10;;;11.07;;
69892;SDS011;61212;42.688;22.176;2022-08-30T07:02:19;13.68;;;10.73;;
69892;SDS011;61212;42.688;22.176;2022-08-30T07:04:45;15.65;;;11.75;;
69892;SDS011;61212;42.688;22.176;2022-08-30T07:07:12;19.98;;;11.52;;
69892;SDS011;61212;42.688;22.176;2022-08-30T07:09:38;21.55;;;12.38;;
69892;SDS011;61212;42.688;22.176;2022-08-30T07:12:12;16.80;;;11.48;;
69892;SDS011;61212;42.688;22.176;2022-08-30T07:14:39;22.20;;;10.77;;
69892;SDS011;61212;42.688;22.176;2022-08-30T07:17:07;16.50;;;12.32;;
69892;SDS011;61212;42.688;22.176;2022-08-30T07:19:52;15.25;;;11.00;;
69892;SDS011;61212;42.688;22.176;2022-08-30T07:22:18;20.25;;;12.52;;
69892;SDS011;61212;42.688;22.176;2022-08-30T07:24:44;19.25;;;10.88;;
69892;SDS011;61212;42.688;22.176;2022-08-30T07:27:11;15.98;;;11.63;;
69892;SDS011;61212;42.688;22.176;2022-08-30T07:29:36;16.77;;;12.00;;
69892;SDS011;61212;42.688;22.176;2022-08-30T07:32:03;24.30;;;12.90;;
69892;SDS011;61212;42.688;22.176;2022-08-30T07:34:29;14.57;;;11.55;;
69892;SDS011;61212;42.688;22.176;2022-08-30T07:39:39;16.27;;;10.88;;
69892;SDS011;61212;42.688;22.176;2022-08-30T07:42:05;15.30;;;12.25;;
69892;SDS011;61212;42.688;22.176;2022-08-30T07:44:31;16.00;;;11.73;;
69892;SDS011;61212;42.688;22.176;2022-08-30T07:46:57;16.23;;;11.02;;
69892;SDS011;61212;42.688;22.176;2022-08-30T07:49:23;15.02;;;10.77;;
69892;SDS011;61212;42.688;22.176;2022-08-30T07:51:49;18.27;;;11.48;;
69892;SDS011;61212;42.688;22.176;2022-08-30T07:54:15;24.77;;;11.07;;
69892;SDS011;61212;42.688;22.176;2022-08-30T07:56:42;19.00;;;11.25;;
69892;SDS011;61212;42.688;22.176;2022-08-30T07:59:08;23.98;;;10.98;;
69892;SDS011;61212;42.688;22.176;2022-08-30T08:01:34;22.80;;;11.30;;
69892;SDS011;61212;42.688;22.176;2022-08-30T08:04:00;17.38;;;11.52;;
69892;SDS011;61212;42.688;22.176;2022-08-30T08:06:26;16.20;;;10.90;;
69892;SDS011;61212;42.688;22.176;2022-08-30T08:08:52;18.35;;;10.48;;
69892;SDS011;61212;42.688;22.176;2022-08-30T08:11:24;14.32;;;9.80;;
69892;SDS011;61212;42.688;22.176;2022-08-30T08:13:50;13.93;;;10.02;;
69892;SDS011;61212;42.688;22.176;2022-08-30T08:16:16;15.23;;;10.63;;
69892;SDS011;61212;42.688;22.176;2022-08-30T08:18:42;13.50;;;10.38;;
69892;SDS011;61212;42.688;22.176;2022-08-30T08:21:08;14.30;;;10.48;;
69892;SDS011;61212;42.688;22.176;2022-08-30T08:23:35;16.15;;;11.20;;
69892;SDS011;61212;42.688;22.176;2022-08-30T08:26:01;15.98;;;9.65;;
69892;SDS011;61212;42.688;22.176;2022-08-30T08:28:28;17.35;;;11.90;;
69892;SDS011;61212;42.688;22.176;2022-08-30T08:30:54;14.55;;;10.48;;
69892;SDS011;61212;42.688;22.176;2022-08-30T08:33:19;15.48;;;11.90;;
69892;SDS011;61212;42.688;22.176;2022-08-30T08:35:46;14.07;;;10.93;;
69892;SDS011;61212;42.688;22.176;2022-08-30T08:38:11;24.70;;;10.52;;
69892;SDS011;61212;42.688;22.176;2022-08-30T08:43:14;17.05;;;9.77;;
69892;SDS011;61212;42.688;22.176;2022-08-30T08:48:54;14.13;;;9.77;;
69892;SDS011;61212;42.688;22.176;2022-08-30T08:51:00;13.10;;;9.10;;
69892;SDS011;61212;42.688;22.176;2022-08-30T08:54:09;16.40;;;8.85;;
69892;SDS011;61212;42.688;22.176;2022-08-30T08:56:32;13.70;;;9.40;;
69892;SDS011;61212;42.688;22.176;2022-08-30T08:58:58;11.45;;;9.30;;
69892;SDS011;61212;42.688;22.176;2022-08-30T09:01:26;15.43;;;9.70;;
69892;SDS011;61212;42.688;22.176;2022-08-30T09:03:53;12.73;;;9.88;;
69892;SDS011;61212;42.688;22.176;2022-08-30T09:09:08;14.20;;;10.30;;
69892;SDS011;61212;42.688;22.176;2022-08-30T09:11:42;15.70;;;8.48;;
69892;SDS011;61212;42.688;22.176;2022-08-30T09:14:09;10.95;;;7.95;;
69892;SDS011;61212;42.688;22.176;2022-08-30T09:16:44;14.50;;;8.32;;
69892;SDS011;61212;42.688;22.176;2022-08-30T09:21:37;12.23;;;8.70;;
69892;SDS011;61212;42.688;22.176;2022-08-30T09:24:03;19.15;;;8.95;;
69892;SDS011;61212;42.688;22.176;2022-08-30T09:26:34;10.82;;;7.57;;
69892;SDS011;61212;42.688;22.176;2022-08-30T09:29:00;13.32;;;7.25;;
69892;SDS011;61212;42.688;22.176;2022-08-30T09:31:28;10.45;;;7.50;;
69892;SDS011;61212;42.688;22.176;2022-08-30T09:39:32;11.75;;;7.53;;
69892;SDS011;61212;42.688;22.176;2022-08-30T09:42:21;10.00;;;6.88;;
69892;SDS011;61212;42.688;22.176;2022-08-30T09:44:49;8.63;;;6.38;;
69892;SDS011;61212;42.688;22.176;2022-08-30T09:47:22;9.35;;;6.32;;
69892;SDS011;61212;42.688;22.176;2022-08-30T09:50:03;11.90;;;7.28;;
69892;SDS011;61212;42.688;22.176;2022-08-30T09:52:37;11.68;;;6.45;;
69892;SDS011;61212;42.688;22.176;2022-08-30T09:57:50;8.35;;;6.05;;
69892;SDS011;61212;42.688;22.176;2022-08-30T10:00:21;6.80;;;5.47;;
69892;SDS011;61212;42.688;22.176;2022-08-30T10:02:54;9.73;;;6.95;;
69892;SDS011;61212;42.688;22.176;2022-08-30T10:07:58;11.20;;;5.93;;
69892;SDS011;61212;42.688;22.176;2022-08-30T10:10:32;7.63;;;5.43;;
69892;SDS011;61212;42.688;22.176;2022-08-30T10:18:33;14.65;;;5.65;;
69892;SDS011;61212;42.688;22.176;2022-08-30T10:23:51;11.82;;;6.20;;
69892;SDS011;61212;42.688;22.176;2022-08-30T10:26:35;15.15;;;10.18;;
69892;SDS011;61212;42.688;22.176;2022-08-30T10:29:07;15.05;;;10.35;;
69892;SDS011;61212;42.688;22.176;2022-08-30T10:34:04;14.68;;;6.82;;
69892;SDS011;61212;42.688;22.176;2022-08-30T10:36:36;13.73;;;8.23;;
69892;SDS011;61212;42.688;22.176;2022-08-30T10:39:05;13.77;;;9.85;;
69892;SDS011;61212;42.688;22.176;2022-08-30T10:41:35;13.10;;;6.78;;
69892;SDS011;61212;42.688;22.176;2022-08-30T10:44:04;10.15;;;6.60;;
69892;SDS011;61212;42.688;22.176;2022-08-30T10:46:56;8.35;;;6.35;;
69892;SDS011;61212;42.688;22.176;2022-08-30T10:49:26;10.70;;;7.25;;
69892;SDS011;61212;42.688;22.176;2022-08-30T10:51:54;8.63;;;6.57;;
69892;SDS011;61212;42.688;22.176;2022-08-30T10:56:49;9.20;;;6.53;;
69892;SDS011;61212;42.688;22.176;2022-08-30T10:59:17;11.30;;;6.18;;
69892;SDS011;61212;42.688;22.176;2022-08-30T11:01:57;11.05;;;6.68;;
69892;SDS011;61212;42.688;22.176;2022-08-30T11:15:10;8.88;;;6.50;;
69892;SDS011;61212;42.688;22.176;2022-08-30T11:17:43;10.40;;;6.30;;
69892;SDS011;61212;42.688;22.176;2022-08-30T11:31:07;8.80;;;6.57;;
69892;SDS011;61212;42.688;22.176;2022-08-30T11:35:59;12.75;;;7.32;;
69892;SDS011;61212;42.688;22.176;2022-08-30T11:59:22;11.52;;;8.63;;
69892;SDS011;61212;42.688;22.176;2022-08-30T12:01:54;10.35;;;8.35;;
69892;SDS011;61212;42.688;22.176;2022-08-30T12:11:52;12.75;;;7.82;;
69892;SDS011;61212;42.688;22.176;2022-08-30T12:20:17;12.43;;;9.57;;
69892;SDS011;61212;42.688;22.176;2022-08-30T12:22:43;12.65;;;7.53;;
69892;SDS011;61212;42.688;22.176;2022-08-30T12:25:14;12.27;;;7.65;;
69892;SDS011;61212;42.688;22.176;2022-08-30T12:31:08;13.93;;;6.88;;
69892;SDS011;61212;42.688;22.176;2022-08-30T12:33:40;14.07;;;6.20;;
69892;SDS011;61212;42.688;22.176;2022-08-30T12:36:11;14.50;;;6.65;;
69892;SDS011;61212;42.688;22.176;2022-08-30T12:38:37;21.35;;;6.70;;
69892;SDS011;61212;42.688;22.176;2022-08-30T12:41:06;12.88;;;5.47;;
69892;SDS011;61212;42.688;22.176;2022-08-30T12:43:37;11.90;;;5.63;;
69892;SDS011;61212;42.688;22.176;2022-08-30T12:46:05;19.08;;;6.10;;
69892;SDS011;61212;42.688;22.176;2022-08-30T12:48:33;15.23;;;6.25;;
69892;SDS011;61212;42.688;22.176;2022-08-30T12:51:00;18.38;;;6.05;;
69892;SDS011;61212;42.688;22.176;2022-08-30T12:53:37;21.30;;;6.78;;
69892;SDS011;61212;42.688;22.176;2022-08-30T12:58:42;19.98;;;7.07;;
69892;SDS011;61212;42.688;22.176;2022-08-30T13:03:42;15.32;;;7.80;;
69892;SDS011;61212;42.688;22.176;2022-08-30T13:06:34;16.17;;;7.55;;
69892;SDS011;61212;42.688;22.176;2022-08-30T13:09:02;10.88;;;7.03;;
69892;SDS011;61212;42.688;22.176;2022-08-30T13:11:29;19.60;;;7.13;;
69892;SDS011;61212;42.688;22.176;2022-08-30T13:13:56;13.98;;;7.10;;
69892;SDS011;61212;42.688;22.176;2022-08-30T13:16:25;11.18;;;7.25;;
69892;SDS011;61212;42.688;22.176;2022-08-30T13:18:52;15.52;;;7.65;;
69892;SDS011;61212;42.688;22.176;2022-08-30T13:21:20;16.95;;;6.85;;
69892;SDS011;61212;42.688;22.176;2022-08-30T13:23:47;20.08;;;6.78;;
69892;SDS011;61212;42.688;22.176;2022-08-30T13:26:14;13.07;;;6.20;;
69892;SDS011;61212;42.688;22.176;2022-08-30T13:28:42;20.55;;;6.32;;
69892;SDS011;61212;42.688;22.176;2022-08-30T13:31:08;18.65;;;6.40;;
69892;SDS011;61212;42.688;22.176;2022-08-30T13:33:35;16.52;;;6.50;;
69892;SDS011;61212;42.688;22.176;2022-08-30T13:36:01;20.13;;;8.07;;
69892;SDS011;61212;42.688;22.176;2022-08-30T13:38:27;16.42;;;6.57;;
69892;SDS011;61212;42.688;22.176;2022-08-30T13:40:53;18.77;;;6.38;;
69892;SDS011;61212;42.688;22.176;2022-08-30T13:43:19;14.00;;;6.40;;
69892;SDS011;61212;42.688;22.176;2022-08-30T13:45:45;13.40;;;7.35;;
69892;SDS011;61212;42.688;22.176;2022-08-30T13:48:12;16.70;;;7.05;;
69892;SDS011;61212;42.688;22.176;2022-08-30T13:50:39;19.70;;;7.22;;
69892;SDS011;61212;42.688;22.176;2022-08-30T13:53:06;13.20;;;5.70;;
69892;SDS011;61212;42.688;22.176;2022-08-30T13:55:33;20.77;;;6.53;;
69892;SDS011;61212;42.688;22.176;2022-08-30T13:57:59;21.42;;;6.63;;
69892;SDS011;61212;42.688;22.176;2022-08-30T14:00:26;11.40;;;4.47;;
69892;SDS011;61212;42.688;22.176;2022-08-30T14:02:52;10.63;;;5.28;;
69892;SDS011;61212;42.688;22.176;2022-08-30T14:05:20;15.07;;;5.65;;
69892;SDS011;61212;42.688;22.176;2022-08-30T14:07:46;14.68;;;5.35;;
69892;SDS011;61212;42.688;22.176;2022-08-30T14:10:13;12.93;;;5.95;;
69892;SDS011;61212;42.688;22.176;2022-08-30T14:12:40;12.38;;;5.00;;
69892;SDS011;61212;42.688;22.176;2022-08-30T14:15:06;12.35;;;5.03;;
69892;SDS011;61212;42.688;22.176;2022-08-30T14:17:32;13.10;;;4.63;;
69892;SDS011;61212;42.688;22.176;2022-08-30T14:19:59;11.35;;;4.20;;
69892;SDS011;61212;42.688;22.176;2022-08-30T14:22:26;12.68;;;3.78;;
69892;SDS011;61212;42.688;22.176;2022-08-30T14:24:52;10.07;;;4.53;;
69892;SDS011;61212;42.688;22.176;2022-08-30T14:27:18;13.60;;;5.57;;
69892;SDS011;61212;42.688;22.176;2022-08-30T14:29:45;12.43;;;5.75;;
69892;SDS011;61212;42.688;22.176;2022-08-30T14:32:11;11.35;;;5.63;;
69892;SDS011;61212;42.688;22.176;2022-08-30T14:34:37;17.90;;;5.38;;
69892;SDS011;61212;42.688;22.176;2022-08-30T14:37:03;11.82;;;5.07;;
69892;SDS011;61212;42.688;22.176;2022-08-30T14:39:31;7.75;;;5.82;;
69892;SDS011;61212;42.688;22.176;2022-08-30T14:41:57;18.65;;;6.97;;
69892;SDS011;61212;42.688;22.176;2022-08-30T14:44:23;14.68;;;8.40;;
69892;SDS011;61212;42.688;22.176;2022-08-30T14:46:50;16.42;;;6.28;;
69892;SDS011;61212;42.688;22.176;2022-08-30T14:49:16;11.70;;;4.90;;
69892;SDS011;61212;42.688;22.176;2022-08-30T14:51:43;7.40;;;4.25;;
69892;SDS011;61212;42.688;22.176;2022-08-30T14:54:13;12.50;;;4.93;;
69892;SDS011;61212;42.688;22.176;2022-08-30T14:56:40;12.85;;;3.85;;
69892;SDS011;61212;42.688;22.176;2022-08-30T14:59:07;7.82;;;3.92;;
69892;SDS011;61212;42.688;22.176;2022-08-30T15:01:33;8.27;;;4.00;;
69892;SDS011;61212;42.688;22.176;2022-08-30T15:04:02;10.45;;;3.42;;
69892;SDS011;61212;42.688;22.176;2022-08-30T15:06:28;12.13;;;3.50;;
69892;SDS011;61212;42.688;22.176;2022-08-30T15:08:54;8.38;;;2.90;;
69892;SDS011;61212;42.688;22.176;2022-08-30T15:11:21;12.55;;;4.00;;
69892;SDS011;61212;42.688;22.176;2022-08-30T15:13:49;7.43;;;3.25;;
69892;SDS011;61212;42.688;22.176;2022-08-30T15:16:17;7.72;;;3.80;;
69892;SDS011;61212;42.688;22.176;2022-08-30T15:18:43;7.95;;;3.60;;
69892;SDS011;61212;42.688;22.176;2022-08-30T15:21:09;10.20;;;3.00;;
69892;SDS011;61212;42.688;22.176;2022-08-30T15:23:36;7.40;;;3.42;;
69892;SDS011;61212;42.688;22.176;2022-08-30T15:26:02;7.97;;;2.92;;
69892;SDS011;61212;42.688;22.176;2022-08-30T15:28:28;7.07;;;3.28;;
69892;SDS011;61212;42.688;22.176;2022-08-30T15:30:54;7.07;;;3.72;;
69892;SDS011;61212;42.688;22.176;2022-08-30T15:33:21;11.75;;;3.33;;
69892;SDS011;61212;42.688;22.176;2022-08-30T15:35:47;8.63;;;3.53;;
69892;SDS011;61212;42.688;22.176;2022-08-30T15:38:16;8.70;;;3.67;;
69892;SDS011;61212;42.688;22.176;2022-08-30T15:40:43;9.02;;;3.90;;
69892;SDS011;61212;42.688;22.176;2022-08-30T15:43:09;9.05;;;3.17;;
69892;SDS011;61212;42.688;22.176;2022-08-30T15:45:35;6.93;;;3.28;;
69892;SDS011;61212;42.688;22.176;2022-08-30T15:48:01;14.48;;;3.80;;
69892;SDS011;61212;42.688;22.176;2022-08-30T15:50:28;6.78;;;2.92;;
69892;SDS011;61212;42.688;22.176;2022-08-30T15:52:54;7.20;;;2.90;;
69892;SDS011;61212;42.688;22.176;2022-08-30T15:55:20;9.27;;;3.15;;
69892;SDS011;61212;42.688;22.176;2022-08-30T16:00:50;12.82;;;3.10;;
69892;SDS011;61212;42.688;22.176;2022-08-30T16:03:16;5.60;;;2.88;;
69892;SDS011;61212;42.688;22.176;2022-08-30T16:05:42;9.10;;;3.58;;
69892;SDS011;61212;42.688;22.176;2022-08-30T16:08:09;7.53;;;3.88;;
69892;SDS011;61212;42.688;22.176;2022-08-30T16:10:37;12.32;;;3.42;;
69892;SDS011;61212;42.688;22.176;2022-08-30T16:13:04;9.02;;;3.10;;
69892;SDS011;61212;42.688;22.176;2022-08-30T16:15:30;9.80;;;4.05;;
69892;SDS011;61212;42.688;22.176;2022-08-30T16:17:56;9.65;;;4.07;;
69892;SDS011;61212;42.688;22.176;2022-08-30T16:20:22;6.72;;;4.10;;
69892;SDS011;61212;42.688;22.176;2022-08-30T16:22:48;9.15;;;3.85;;
69892;SDS011;61212;42.688;22.176;2022-08-30T16:25:14;10.90;;;3.65;;
69892;SDS011;61212;42.688;22.176;2022-08-30T16:27:41;6.22;;;3.55;;
69892;SDS011;61212;42.688;22.176;2022-08-30T16:30:09;9.15;;;3.85;;
69892;SDS011;61212;42.688;22.176;2022-08-30T16:32:35;7.32;;;4.07;;
69892;SDS011;61212;42.688;22.176;2022-08-30T16:35:02;7.28;;;3.70;;
69892;SDS011;61212;42.688;22.176;2022-08-30T16:37:28;12.13;;;6.40;;
69892;SDS011;61212;42.688;22.176;2022-08-30T16:39:55;8.45;;;5.85;;